createdAt,value
2023-01-19T00:00:53.352Z,31.80
2023-01-19T00:03:22.779Z,32.73
2023-01-19T00:05:52.713Z,32.30
2023-01-19T00:08:19.603Z,31.43
2023-01-19T00:10:53.678Z,33.07
2023-01-19T00:13:22.723Z,33.20
2023-01-19T00:15:49.659Z,32.33
2023-01-19T00:18:16.489Z,32.07
2023-01-19T00:20:47.945Z,31.30
2023-01-19T00:23:15.344Z,30.30
2023-01-19T00:25:45.487Z,31.43
2023-01-19T00:28:15.096Z,31.53
2023-01-19T00:30:42.248Z,30.77
2023-01-19T00:33:13.847Z,31.33
2023-01-19T00:35:42.620Z,30.43
2023-01-19T00:38:10.166Z,31.30
2023-01-19T00:40:36.909Z,31.87
2023-01-19T00:43:05.820Z,30.90
2023-01-19T00:45:33.356Z,30.33
2023-01-19T00:48:00.140Z,30.57
2023-01-19T00:50:27.683Z,31.53
2023-01-19T00:52:57.172Z,30.33
2023-01-19T00:55:24.151Z,29.80
2023-01-19T00:57:50.929Z,30.70
2023-01-19T01:00:19.556Z,30.57
2023-01-19T01:02:46.734Z,29.83
2023-01-19T01:05:13.563Z,29.43
2023-01-19T01:07:41.821Z,29.47
2023-01-19T01:10:22.977Z,28.83
2023-01-19T01:12:55.159Z,28.13
2023-01-19T01:15:24.808Z,29.23
2023-01-19T01:17:53.803Z,28.90
2023-01-19T01:20:25.396Z,30.00
2023-01-19T01:22:52.756Z,30.27
2023-01-19T01:25:22.583Z,29.70
2023-01-19T01:27:52.148Z,29.77
2023-01-19T01:30:19.128Z,29.47
2023-01-19T01:32:45.926Z,28.83
2023-01-19T01:35:15.030Z,28.27
2023-01-19T01:37:44.397Z,29.43
2023-01-19T01:40:12.941Z,28.83
2023-01-19T01:42:40.622Z,28.87
2023-01-19T01:45:27.134Z,29.00
2023-01-19T01:47:56.016Z,28.93
2023-01-19T01:50:27.880Z,27.87
2023-01-19T01:53:07.249Z,29.70
2023-01-19T01:55:36.654Z,29.70
2023-01-19T01:58:06.266Z,29.70
2023-01-19T02:00:54.126Z,30.73
2023-01-19T02:03:22.811Z,29.67
2023-01-19T02:05:49.589Z,30.37
2023-01-19T02:08:45.780Z,29.40
2023-01-19T02:11:30.985Z,30.07
2023-01-19T02:13:59.939Z,29.90
2023-01-19T02:16:30.094Z,29.33
2023-01-19T02:19:01.238Z,29.40
2023-01-19T02:21:30.855Z,29.10
2023-01-19T02:24:01.655Z,30.83
2023-01-19T02:26:34.579Z,29.77
2023-01-19T02:29:07.010Z,30.17
2023-01-19T02:31:37.325Z,29.43
2023-01-19T02:34:04.545Z,29.47
2023-01-19T02:36:58.285Z,30.57
2023-01-19T02:39:35.057Z,29.03
2023-01-19T02:42:07.580Z,29.17
2023-01-19T02:44:34.346Z,28.23
2023-01-19T02:47:01.107Z,30.17
2023-01-19T02:49:30.416Z,29.47
2023-01-19T02:52:01.155Z,29.37
2023-01-19T02:54:30.903Z,31.03
2023-01-19T02:57:19.318Z,30.03
2023-01-19T02:59:55.247Z,28.63
2023-01-19T03:02:33.991Z,29.17
2023-01-19T03:05:09.412Z,28.37
2023-01-19T03:07:54.678Z,29.13
2023-01-19T03:10:36.646Z,30.93
2023-01-19T03:13:45.651Z,28.57
2023-01-19T03:16:40.970Z,30.53
2023-01-19T03:19:27.279Z,28.67
2023-01-19T03:21:58.785Z,28.90
2023-01-19T03:24:26.468Z,30.07
2023-01-19T03:26:58.793Z,28.53
2023-01-19T03:29:28.744Z,28.90
2023-01-19T03:31:58.443Z,28.63
2023-01-19T03:34:28.554Z,28.97
2023-01-19T03:37:01.282Z,29.60
2023-01-19T03:39:28.149Z,28.00
2023-01-19T03:42:00.104Z,28.63
2023-01-19T03:44:27.744Z,28.33
2023-01-19T03:46:57.539Z,27.63
2023-01-19T03:49:26.724Z,26.87
2023-01-19T03:51:55.803Z,26.97
2023-01-19T03:54:27.452Z,26.50
2023-01-19T03:56:54.208Z,27.83
2023-01-19T03:59:23.280Z,28.43
2023-01-19T04:01:50.106Z,28.73
2023-01-19T04:04:16.924Z,28.03
2023-01-19T04:06:46.856Z,27.33
2023-01-19T04:09:13.636Z,25.70
2023-01-19T04:11:40.378Z,27.27
2023-01-19T04:14:07.170Z,26.73
2023-01-19T04:16:33.954Z,26.73
2023-01-19T04:19:02.933Z,26.63
2023-01-19T04:21:29.697Z,26.03
2023-01-19T04:23:56.486Z,24.73
2023-01-19T04:26:25.786Z,24.27
2023-01-19T04:28:52.579Z,24.37
2023-01-19T04:31:19.607Z,23.80
2023-01-19T04:33:48.575Z,25.00
2023-01-19T04:36:15.431Z,25.47
2023-01-19T04:38:42.169Z,24.97
2023-01-19T04:41:09.011Z,26.10
2023-01-19T04:43:35.841Z,31.17
2023-01-19T04:46:02.621Z,29.47
2023-01-19T04:48:29.744Z,27.27
2023-01-19T04:50:59.004Z,26.87
2023-01-19T04:53:25.801Z,27.17
2023-01-19T04:55:56.290Z,26.87
2023-01-19T04:58:23.325Z,27.73
2023-01-19T05:00:51.280Z,27.37
2023-01-19T05:03:19.337Z,27.77
2023-01-19T05:05:46.446Z,26.73
2023-01-19T05:08:13.307Z,25.83
2023-01-19T05:10:42.526Z,26.40
2023-01-19T05:13:09.275Z,25.47
2023-01-19T05:15:36.037Z,27.10
2023-01-19T05:18:02.874Z,26.60
2023-01-19T05:20:29.718Z,28.07
2023-01-19T05:22:56.486Z,29.10
2023-01-19T05:25:25.378Z,27.37
2023-01-19T05:27:52.306Z,28.33
2023-01-19T05:30:21.407Z,28.00
2023-01-19T05:32:48.183Z,27.10
2023-01-19T05:35:18.146Z,26.60
2023-01-19T05:37:47.287Z,27.83
2023-01-19T05:40:14.079Z,28.47
2023-01-19T05:42:40.838Z,27.93
2023-01-19T05:45:08.349Z,25.60
2023-01-19T05:47:35.130Z,24.80
2023-01-19T05:50:04.154Z,24.23
2023-01-19T05:52:30.902Z,24.60
2023-01-19T05:55:00.214Z,23.87
2023-01-19T05:57:26.955Z,23.33
2023-01-19T05:59:53.748Z,22.33
2023-01-19T06:02:20.561Z,23.03
2023-01-19T06:04:47.335Z,23.07
2023-01-19T06:07:14.298Z,23.60
2023-01-19T06:09:41.057Z,23.50
2023-01-19T06:12:10.140Z,22.70
2023-01-19T06:14:38.063Z,22.83
2023-01-19T06:17:06.193Z,23.13
2023-01-19T06:19:33.283Z,22.83
2023-01-19T06:22:00.092Z,23.40
2023-01-19T06:24:27.912Z,23.60
2023-01-19T06:26:54.930Z,23.87
2023-01-19T06:29:22.175Z,22.97
2023-01-19T06:31:49.595Z,24.60
2023-01-19T06:34:16.478Z,22.97
2023-01-19T06:36:43.224Z,22.97
2023-01-19T06:39:10.682Z,22.87
2023-01-19T06:41:37.534Z,21.40
2023-01-19T06:44:04.765Z,20.40
2023-01-19T06:46:35.053Z,22.10
2023-01-19T06:49:01.913Z,21.27
2023-01-19T06:51:29.056Z,21.70
2023-01-19T06:53:55.917Z,20.20
2023-01-19T06:56:22.669Z,20.67
2023-01-19T06:58:50.598Z,20.83
2023-01-19T07:01:20.006Z,21.20
2023-01-19T07:03:49.379Z,21.47
2023-01-19T07:06:18.672Z,20.00
2023-01-19T07:08:45.476Z,20.30
2023-01-19T07:11:25.306Z,19.40
2023-01-19T07:13:57.882Z,19.90
2023-01-19T07:16:27.004Z,19.30
2023-01-19T07:18:53.892Z,20.53
2023-01-19T07:21:22.947Z,20.00
2023-01-19T07:23:53.273Z,21.37
2023-01-19T07:26:21.497Z,20.60
2023-01-19T07:28:48.628Z,21.33
2023-01-19T07:31:15.747Z,20.67
2023-01-19T07:33:44.892Z,20.67
2023-01-19T07:36:14.212Z,20.53
2023-01-19T07:38:45.665Z,20.57
2023-01-19T07:41:12.519Z,21.03
2023-01-19T07:43:41.753Z,20.70
2023-01-19T07:46:08.675Z,19.70
2023-01-19T07:48:35.508Z,19.33
2023-01-19T07:51:05.856Z,21.07
2023-01-19T07:53:35.227Z,20.37
2023-01-19T07:56:07.659Z,21.33
2023-01-19T07:58:34.474Z,20.13
2023-01-19T08:01:05.368Z,20.23
2023-01-19T08:03:34.473Z,20.50
2023-01-19T08:06:02.463Z,20.80
2023-01-19T08:08:32.898Z,21.40
2023-01-19T08:10:59.765Z,21.83
2023-01-19T08:13:27.900Z,20.63
2023-01-19T08:15:54.748Z,21.10
2023-01-19T08:18:21.543Z,20.57
2023-01-19T08:20:48.404Z,21.40
2023-01-19T08:23:18.276Z,20.67
2023-01-19T08:25:46.007Z,21.60
2023-01-19T08:28:19.368Z,20.97
2023-01-19T08:30:47.336Z,20.00
2023-01-19T08:33:14.232Z,20.93
2023-01-19T08:35:44.102Z,22.03
2023-01-19T08:38:13.231Z,22.13
2023-01-19T08:40:40.786Z,20.40
2023-01-19T08:43:12.883Z,22.53
2023-01-19T08:45:46.720Z,19.80
2023-01-19T08:48:13.917Z,20.77
2023-01-19T08:50:40.668Z,21.60
2023-01-19T08:53:07.541Z,21.97
2023-01-19T08:55:37.261Z,21.70
2023-01-19T08:58:04.677Z,21.67
2023-01-19T09:00:33.566Z,20.13
2023-01-19T09:03:03.575Z,19.57
2023-01-19T09:05:40.020Z,21.17
2023-01-19T09:08:11.053Z,20.03
2023-01-19T09:10:40.454Z,20.77
2023-01-19T09:13:11.043Z,20.10
2023-01-19T09:15:40.535Z,19.33
2023-01-19T09:18:13.564Z,20.37
2023-01-19T09:20:44.323Z,18.77
2023-01-19T09:23:14.572Z,19.00
2023-01-19T09:25:42.404Z,18.07
2023-01-19T09:28:12.624Z,16.60
2023-01-19T09:30:40.287Z,16.03
2023-01-19T09:33:08.694Z,16.73
2023-01-19T09:35:35.497Z,16.33
2023-01-19T09:38:02.643Z,17.00
2023-01-19T09:40:32.182Z,16.87
2023-01-19T09:43:15.305Z,15.33
2023-01-19T09:46:06.147Z,15.37
2023-01-19T09:48:53.193Z,15.57
2023-01-19T09:51:29.568Z,14.47
2023-01-19T09:53:57.533Z,14.57
2023-01-19T09:56:26.888Z,13.73
2023-01-19T09:58:53.727Z,14.53
2023-01-19T10:01:35.815Z,14.87
2023-01-19T10:04:17.111Z,14.90
2023-01-19T10:06:43.900Z,14.30
2023-01-19T10:09:19.198Z,13.30
2023-01-19T10:11:56.668Z,13.63
2023-01-19T10:14:32.584Z,14.43
2023-01-19T10:17:35.989Z,13.87
2023-01-19T10:20:03.246Z,14.77
2023-01-19T10:22:30.022Z,15.20
2023-01-19T10:25:01.530Z,16.50
2023-01-19T10:27:34.547Z,16.70
2023-01-19T10:30:01.740Z,16.70
2023-01-19T10:32:31.117Z,19.47
2023-01-19T10:35:01.089Z,18.23
2023-01-19T10:37:27.911Z,16.13
2023-01-19T10:40:21.712Z,17.27
2023-01-19T10:42:48.517Z,16.73
2023-01-19T10:45:23.799Z,14.93
2023-01-19T10:47:53.617Z,13.93
2023-01-19T10:50:30.810Z,14.70
2023-01-19T10:53:02.016Z,15.17
2023-01-19T10:55:33.233Z,13.10
2023-01-19T10:58:00.512Z,13.07
2023-01-19T11:00:35.493Z,14.07
2023-01-19T11:03:03.256Z,14.33
2023-01-19T11:05:34.687Z,14.20
2023-01-19T11:08:01.564Z,15.07
2023-01-19T11:10:31.413Z,16.57
2023-01-19T11:13:16.812Z,17.10
2023-01-19T11:15:54.933Z,15.73
2023-01-19T11:18:30.319Z,17.70
2023-01-19T11:20:58.634Z,16.63
2023-01-19T11:23:54.469Z,16.07
2023-01-19T11:26:48.373Z,15.83
2023-01-19T11:29:25.683Z,16.23
2023-01-19T11:31:53.277Z,16.30
2023-01-19T11:34:31.939Z,15.37
2023-01-19T11:37:05.876Z,14.67
2023-01-19T11:39:45.054Z,15.30
2023-01-19T11:42:12.870Z,14.57
2023-01-19T11:44:48.295Z,15.93
2023-01-19T11:47:23.303Z,15.17
2023-01-19T11:50:10.000Z,16.57
2023-01-19T11:52:45.320Z,17.43
2023-01-19T11:55:37.016Z,16.63
2023-01-19T11:58:04.732Z,16.73
2023-01-19T12:00:42.466Z,16.70
2023-01-19T12:03:37.877Z,16.80
2023-01-19T12:06:09.905Z,16.63
2023-01-19T12:08:41.888Z,17.03
2023-01-19T12:11:10.398Z,18.70
2023-01-19T12:13:37.645Z,18.53
2023-01-19T12:16:21.362Z,18.13
2023-01-19T12:19:18.479Z,17.60
2023-01-19T12:21:45.531Z,18.47
2023-01-19T12:24:17.279Z,17.50
2023-01-19T12:26:51.598Z,18.97
2023-01-19T12:29:22.615Z,18.30
2023-01-19T12:32:14.527Z,18.20
2023-01-19T12:34:43.804Z,17.87
2023-01-19T12:37:38.083Z,17.90
2023-01-19T12:40:28.616Z,17.33
2023-01-19T12:43:03.839Z,17.83
2023-01-19T12:45:34.299Z,17.97
2023-01-19T12:48:03.364Z,17.47
2023-01-19T12:50:39.133Z,17.50
2023-01-19T12:53:15.711Z,18.77
2023-01-19T12:55:46.816Z,18.53
2023-01-19T12:58:20.364Z,18.70
2023-01-19T13:00:48.176Z,19.53
2023-01-19T13:03:17.931Z,19.90
2023-01-19T13:05:44.796Z,20.03
2023-01-19T13:08:12.544Z,20.13
2023-01-19T13:10:54.432Z,21.43
2023-01-19T13:13:22.741Z,19.70
2023-01-19T13:15:54.224Z,21.07
2023-01-19T13:18:31.432Z,21.20
2023-01-19T13:21:08.307Z,21.80
2023-01-19T13:24:02.021Z,21.87
2023-01-19T13:26:33.286Z,22.13
2023-01-19T13:29:16.057Z,21.73
2023-01-19T13:31:49.045Z,22.60
2023-01-19T13:34:18.671Z,21.97
2023-01-19T13:36:51.579Z,21.77
2023-01-19T13:39:40.684Z,21.57
2023-01-19T13:42:21.351Z,22.90
2023-01-19T13:44:53.187Z,23.47
2023-01-19T13:47:25.451Z,22.27
2023-01-19T13:49:56.155Z,22.80
2023-01-19T13:52:25.917Z,23.73
2023-01-19T13:55:05.797Z,22.07
2023-01-19T13:57:43.388Z,23.93
2023-01-19T14:00:16.225Z,23.33
2023-01-19T14:02:55.058Z,22.80
2023-01-19T14:05:36.532Z,22.53
2023-01-19T14:08:12.012Z,22.97
2023-01-19T14:10:54.052Z,22.70
2023-01-19T14:13:23.968Z,21.73
2023-01-19T14:15:55.076Z,24.00
2023-01-19T14:18:21.972Z,22.47
2023-01-19T14:21:08.591Z,23.07
2023-01-19T14:23:48.418Z,23.60
2023-01-19T14:26:41.935Z,22.83
2023-01-19T14:29:37.931Z,22.77
2023-01-19T14:32:14.723Z,21.23
2023-01-19T14:34:45.572Z,22.53
2023-01-19T14:37:16.169Z,22.00
2023-01-19T14:39:50.162Z,20.53
2023-01-19T14:42:43.558Z,20.13
2023-01-19T14:45:20.644Z,18.90
2023-01-19T14:47:56.997Z,19.47
2023-01-19T14:50:36.651Z,21.07
2023-01-19T14:53:24.367Z,19.23
2023-01-19T14:55:52.668Z,19.57
2023-01-19T14:58:20.669Z,18.97
2023-01-19T15:00:47.762Z,19.60
2023-01-19T15:03:14.812Z,17.97
2023-01-19T15:05:47.234Z,18.00
2023-01-19T15:08:23.281Z,18.50
2023-01-19T15:10:50.075Z,19.20
2023-01-19T15:13:24.019Z,18.33
2023-01-19T15:15:50.882Z,17.77
2023-01-19T15:18:21.919Z,18.00
2023-01-19T15:20:48.709Z,17.20
2023-01-19T15:23:15.515Z,19.00
2023-01-19T15:25:42.293Z,18.20
2023-01-19T15:28:15.887Z,17.63
2023-01-19T15:30:42.835Z,18.57
2023-01-19T15:33:26.314Z,17.93
2023-01-19T15:35:53.389Z,19.57
2023-01-19T15:38:24.556Z,20.30
2023-01-19T15:40:53.627Z,20.30
2023-01-19T15:43:21.415Z,20.53
2023-01-19T15:46:06.278Z,19.83
2023-01-19T15:48:33.071Z,21.17
2023-01-19T15:51:00.087Z,19.07
2023-01-19T15:53:27.311Z,21.37
2023-01-19T15:55:57.121Z,20.00
2023-01-19T15:58:30.051Z,19.13
2023-01-19T16:00:57.822Z,18.37
2023-01-19T16:03:29.291Z,18.43
2023-01-19T16:05:58.245Z,16.77
2023-01-19T16:08:27.179Z,16.73
2023-01-19T16:10:53.927Z,17.30
2023-01-19T16:13:22.836Z,17.37
2023-01-19T16:15:52.108Z,17.83
2023-01-19T16:18:18.871Z,17.37
2023-01-19T16:20:50.288Z,16.83
2023-01-19T16:23:17.402Z,16.90
2023-01-19T16:25:48.383Z,17.33
2023-01-19T16:28:15.154Z,16.37
2023-01-19T16:30:44.337Z,17.43
2023-01-19T16:33:13.875Z,16.07
2023-01-19T16:35:40.667Z,15.00
2023-01-19T16:38:09.424Z,16.03
2023-01-19T16:40:36.447Z,16.00
2023-01-19T16:43:05.406Z,15.83
2023-01-19T16:45:34.370Z,15.27
2023-01-19T16:48:01.175Z,15.60
2023-01-19T16:50:27.928Z,14.67
2023-01-19T16:52:58.127Z,13.00
2023-01-19T16:55:24.881Z,12.73
2023-01-19T16:57:54.985Z,12.40
2023-01-19T17:00:21.939Z,12.43
2023-01-19T17:02:48.785Z,12.73
2023-01-19T17:05:15.655Z,12.67
2023-01-19T17:07:42.432Z,13.30
2023-01-19T17:10:10.125Z,14.57
2023-01-19T17:12:39.419Z,12.80
2023-01-19T17:15:06.781Z,13.50
2023-01-19T17:17:36.260Z,13.13
2023-01-19T17:20:03.549Z,11.70
2023-01-19T17:22:32.465Z,11.60
2023-01-19T17:25:01.445Z,12.20
2023-01-19T17:27:33.951Z,12.30
2023-01-19T17:30:00.763Z,13.67
2023-01-19T17:32:29.832Z,13.03
2023-01-19T17:34:56.631Z,13.80
2023-01-19T17:37:25.830Z,14.33
2023-01-19T17:39:57.130Z,16.03
2023-01-19T17:42:26.228Z,16.57
2023-01-19T17:44:52.979Z,16.70
2023-01-19T17:47:25.513Z,15.30
2023-01-19T17:49:54.668Z,14.97
2023-01-19T17:52:21.469Z,14.80
2023-01-19T17:54:48.279Z,15.03
2023-01-19T17:57:16.402Z,15.00
2023-01-19T17:59:43.859Z,16.73
2023-01-19T18:02:10.874Z,16.50
2023-01-19T18:04:38.742Z,16.40
2023-01-19T18:07:05.720Z,14.70
2023-01-19T18:09:32.573Z,14.70
2023-01-19T18:11:59.358Z,14.97
2023-01-19T18:14:26.191Z,14.83
2023-01-19T18:16:55.462Z,14.10
2023-01-19T18:19:24.569Z,14.50
2023-01-19T18:21:51.612Z,14.50
2023-01-19T18:24:23.031Z,14.63
2023-01-19T18:26:56.338Z,14.17
2023-01-19T18:29:23.302Z,13.60
2023-01-19T18:31:52.347Z,13.27
2023-01-19T18:34:19.195Z,14.63
2023-01-19T18:36:49.024Z,14.67
2023-01-19T18:39:18.141Z,14.53
2023-01-19T18:41:47.077Z,14.90
2023-01-19T18:44:13.828Z,15.90
2023-01-19T18:46:42.816Z,16.70
2023-01-19T18:49:10.152Z,15.10
2023-01-19T18:51:37.688Z,16.10
2023-01-19T18:54:04.664Z,14.83
2023-01-19T18:56:31.455Z,14.80
2023-01-19T18:59:00.348Z,16.57
2023-01-19T19:01:33.023Z,15.90
2023-01-19T19:04:00.080Z,16.90
2023-01-19T19:06:27.527Z,16.37
2023-01-19T19:08:55.547Z,16.60
2023-01-19T19:11:23.118Z,16.13
2023-01-19T19:13:53.842Z,17.37
2023-01-19T19:16:20.692Z,17.80
2023-01-19T19:18:50.039Z,17.87
2023-01-19T19:21:17.362Z,18.43
2023-01-19T19:23:46.153Z,19.73
2023-01-19T19:26:15.499Z,18.33
2023-01-19T19:28:42.294Z,20.20
2023-01-19T19:31:12.866Z,20.23
2023-01-19T19:33:39.791Z,19.83
2023-01-19T19:36:09.173Z,19.53
2023-01-19T19:38:40.988Z,19.40
2023-01-19T19:41:14.391Z,20.57
2023-01-19T19:43:43.680Z,19.90
2023-01-19T19:46:12.171Z,20.03
2023-01-19T19:48:39.567Z,20.70
2023-01-19T19:51:19.045Z,20.87
2023-01-19T19:53:51.511Z,21.57
2023-01-19T19:56:21.116Z,19.90
2023-01-19T19:58:51.605Z,21.77
2023-01-19T20:01:25.342Z,21.90
2023-01-19T20:03:54.103Z,21.80
2023-01-19T20:06:22.151Z,22.37
2023-01-19T20:08:49.575Z,20.73
2023-01-19T20:11:20.545Z,20.37
2023-01-19T20:13:47.761Z,20.03
2023-01-19T20:16:16.153Z,19.87
2023-01-19T20:18:43.972Z,19.37
2023-01-19T20:21:15.389Z,19.63
2023-01-19T20:23:44.326Z,20.07
2023-01-19T20:26:11.840Z,19.30
2023-01-19T20:28:39.033Z,20.00
2023-01-19T20:31:25.244Z,19.50
2023-01-19T20:33:55.588Z,19.97
2023-01-19T20:36:24.324Z,20.50
2023-01-19T20:38:54.615Z,21.03
2023-01-19T20:41:24.483Z,22.90
2023-01-19T20:43:51.335Z,22.60
2023-01-19T20:46:20.645Z,23.00
2023-01-19T20:48:52.877Z,23.20
2023-01-19T20:51:20.389Z,23.23
2023-01-19T20:53:47.561Z,22.90
2023-01-19T20:56:19.117Z,22.83
2023-01-19T20:58:48.399Z,22.50
2023-01-19T21:01:18.960Z,23.47
2023-01-19T21:03:45.951Z,23.33
2023-01-19T21:06:12.874Z,23.93
2023-01-19T21:08:39.914Z,24.40
2023-01-19T21:11:06.836Z,24.67
2023-01-19T21:13:34.392Z,24.37
2023-01-19T21:16:01.377Z,25.67
2023-01-19T21:18:28.207Z,25.30
2023-01-19T21:21:00.208Z,23.80
2023-01-19T21:23:29.271Z,26.03
2023-01-19T21:25:57.604Z,24.77
2023-01-19T21:28:26.036Z,26.03
2023-01-19T21:31:00.469Z,25.43
2023-01-19T21:33:27.312Z,26.93
2023-01-19T21:35:55.269Z,26.70
2023-01-19T21:38:22.757Z,26.20
2023-01-19T21:40:50.379Z,28.40
2023-01-19T21:43:17.548Z,27.07
2023-01-19T21:45:49.662Z,27.30
2023-01-19T21:48:17.039Z,27.30
2023-01-19T21:50:43.923Z,28.03
2023-01-19T21:53:11.493Z,27.63
2023-01-19T21:55:38.545Z,27.43
2023-01-19T21:58:05.379Z,26.97
2023-01-19T22:00:32.402Z,28.40
2023-01-19T22:03:04.299Z,25.80
2023-01-19T22:05:36.496Z,25.10
2023-01-19T22:08:04.296Z,26.30
2023-01-19T22:10:33.215Z,26.70
2023-01-19T22:13:00.015Z,26.87
2023-01-19T22:15:26.835Z,27.80
2023-01-19T22:17:53.603Z,26.63
2023-01-19T22:20:20.381Z,27.43
2023-01-19T22:22:49.410Z,26.17
2023-01-19T22:25:16.268Z,27.93
2023-01-19T22:27:43.085Z,28.30
2023-01-19T22:30:12.398Z,26.73
2023-01-19T22:32:39.270Z,26.60
2023-01-19T22:35:08.801Z,26.97
2023-01-19T22:37:36.486Z,26.73
2023-01-19T22:40:06.854Z,26.17
2023-01-19T22:42:36.112Z,26.63
2023-01-19T22:45:02.926Z,27.60
2023-01-19T22:47:29.676Z,26.50
2023-01-19T22:49:58.616Z,26.97
2023-01-19T22:52:25.388Z,28.37
2023-01-19T22:54:56.261Z,27.80
2023-01-19T22:57:23.124Z,28.23
2023-01-19T22:59:49.901Z,29.97
2023-01-19T23:02:20.795Z,28.03
2023-01-19T23:04:50.171Z,29.33
2023-01-19T23:07:17.012Z,28.30
2023-01-19T23:09:43.817Z,28.67
2023-01-19T23:12:10.601Z,28.70
2023-01-19T23:14:37.652Z,29.23
2023-01-19T23:17:04.430Z,28.60
2023-01-19T23:19:33.732Z,29.27
2023-01-19T23:22:00.517Z,29.37
2023-01-19T23:24:30.538Z,28.60
2023-01-19T23:27:01.540Z,28.47
2023-01-19T23:29:28.332Z,29.80
2023-01-19T23:31:56.009Z,29.87
2023-01-19T23:34:22.773Z,29.13
2023-01-19T23:36:51.915Z,29.77
2023-01-19T23:39:20.350Z,29.50
2023-01-19T23:41:47.298Z,31.10
2023-01-19T23:44:14.351Z,30.27
2023-01-19T23:46:41.331Z,29.60
2023-01-19T23:49:08.159Z,30.00
2023-01-19T23:51:37.079Z,32.33
2023-01-19T23:54:03.995Z,29.90
2023-01-19T23:56:32.980Z,29.90
2023-01-19T23:59:03.582Z,31.50
